sensor_id;sensor_type;location;lat;lon;timestamp;pressure;altitude;pressure_sealevel;temperature;humidity
23616;BME280;11985;49.404;7.734;2023-02-15T00:01:13;98597.53;;;-1.48;100.00
23616;BME280;11985;49.404;7.734;2023-02-15T00:06:15;98604.06;;;-1.42;100.00
23616;BME280;11985;49.404;7.734;2023-02-15T00:11:18;98590.50;;;-1.46;100.00
23616;BME280;11985;49.404;7.734;2023-02-15T00:16:42;98583.28;;;-1.68;100.00
23616;BME280;11985;49.404;7.734;2023-02-15T00:21:44;98574.28;;;-1.75;100.00
23616;BME280;11985;49.404;7.734;2023-02-15T00:26:47;98574.78;;;-1.82;100.00
23616;BME280;11985;49.404;7.734;2023-02-15T00:31:50;98577.75;;;-1.89;100.00
23616;BME280;11985;49.404;7.734;2023-02-15T00:36:52;98573.19;;;-1.85;100.00
23616;BME280;11985;49.404;7.734;2023-02-15T00:41:54;98576.13;;;-1.77;100.00
23616;BME280;11985;49.404;7.734;2023-02-15T00:46:57;98569.13;;;-1.75;100.00
23616;BME280;11985;49.404;7.734;2023-02-15T00:51:58;98573.44;;;-1.75;100.00
23616;BME280;11985;49.404;7.734;2023-02-15T00:57:00;98583.22;;;-1.66;100.00
23616;BME280;11985;49.404;7.734;2023-02-15T01:02:02;98573.31;;;-1.60;100.00
23616;BME280;11985;49.404;7.734;2023-02-15T01:07:04;98562.97;;;-1.60;100.00
23616;BME280;11985;49.404;7.734;2023-02-15T01:12:05;98565.81;;;-1.77;100.00
23616;BME280;11985;49.404;7.734;2023-02-15T01:17:10;98562.47;;;-1.79;100.00
23616;BME280;11985;49.404;7.734;2023-02-15T01:22:11;98564.44;;;-1.82;100.00
23616;BME280;11985;49.404;7.734;2023-02-15T01:27:13;98557.69;;;-1.85;100.00
23616;BME280;11985;49.404;7.734;2023-02-15T01:32:16;98553.78;;;-1.78;100.00
23616;BME280;11985;49.404;7.734;2023-02-15T01:37:17;98558.59;;;-1.72;100.00
23616;BME280;11985;49.404;7.734;2023-02-15T01:42:21;98554.97;;;-1.69;100.00
23616;BME280;11985;49.404;7.734;2023-02-15T01:47:31;98558.78;;;-1.75;100.00
23616;BME280;11985;49.404;7.734;2023-02-15T01:52:36;98543.84;;;-1.84;100.00
23616;BME280;11985;49.404;7.734;2023-02-15T01:57:39;98530.22;;;-1.86;100.00
23616;BME280;11985;49.404;7.734;2023-02-15T02:02:46;98530.78;;;-1.95;100.00
23616;BME280;11985;49.404;7.734;2023-02-15T02:07:50;98527.94;;;-1.91;100.00
23616;BME280;11985;49.404;7.734;2023-02-15T02:12:56;98531.34;;;-1.90;100.00
23616;BME280;11985;49.404;7.734;2023-02-15T02:18:09;98534.13;;;-1.93;100.00
23616;BME280;11985;49.404;7.734;2023-02-15T02:23:22;98527.19;;;-1.93;100.00
23616;BME280;11985;49.404;7.734;2023-02-15T02:28:40;98530.31;;;-1.88;100.00
23616;BME280;11985;49.404;7.734;2023-02-15T02:33:56;98535.38;;;-1.86;100.00
23616;BME280;11985;49.404;7.734;2023-02-15T02:39:12;98524.03;;;-1.83;100.00
23616;BME280;11985;49.404;7.734;2023-02-15T02:44:21;98512.88;;;-1.84;100.00
23616;BME280;11985;49.404;7.734;2023-02-15T02:49:33;98508.63;;;-1.85;100.00
23616;BME280;11985;49.404;7.734;2023-02-15T02:54:35;98505.66;;;-1.79;100.00
23616;BME280;11985;49.404;7.734;2023-02-15T02:59:41;98507.31;;;-1.78;100.00
23616;BME280;11985;49.404;7.734;2023-02-15T03:04:50;98502.16;;;-1.78;100.00
23616;BME280;11985;49.404;7.734;2023-02-15T03:10:00;98500.31;;;-1.76;100.00
23616;BME280;11985;49.404;7.734;2023-02-15T03:15:05;98501.97;;;-1.75;100.00
23616;BME280;11985;49.404;7.734;2023-02-15T03:20:16;98491.81;;;-1.78;100.00
23616;BME280;11985;49.404;7.734;2023-02-15T03:25:21;98480.63;;;-1.91;100.00
23616;BME280;11985;49.404;7.734;2023-02-15T03:30:24;98479.97;;;-1.95;100.00
23616;BME280;11985;49.404;7.734;2023-02-15T03:35:33;98479.50;;;-1.87;100.00
23616;BME280;11985;49.404;7.734;2023-02-15T03:40:39;98470.28;;;-1.91;100.00
23616;BME280;11985;49.404;7.734;2023-02-15T03:46:05;98473.28;;;-1.97;100.00
23616;BME280;11985;49.404;7.734;2023-02-15T03:51:14;98475.84;;;-1.97;100.00
23616;BME280;11985;49.404;7.734;2023-02-15T03:56:35;98473.44;;;-2.00;100.00
23616;BME280;11985;49.404;7.734;2023-02-15T04:01:39;98472.72;;;-2.02;100.00
23616;BME280;11985;49.404;7.734;2023-02-15T04:06:59;98478.00;;;-2.04;100.00
23616;BME280;11985;49.404;7.734;2023-02-15T04:12:01;98476.41;;;-2.06;100.00
23616;BME280;11985;49.404;7.734;2023-02-15T04:17:05;98480.28;;;-1.99;100.00
23616;BME280;11985;49.404;7.734;2023-02-15T04:22:08;98480.19;;;-1.98;100.00
23616;BME280;11985;49.404;7.734;2023-02-15T04:27:27;98484.13;;;-1.92;100.00
23616;BME280;11985;49.404;7.734;2023-02-15T04:32:28;98489.31;;;-1.92;100.00
23616;BME280;11985;49.404;7.734;2023-02-15T04:37:31;98479.81;;;-2.06;100.00
23616;BME280;11985;49.404;7.734;2023-02-15T04:42:33;98481.81;;;-2.24;100.00
23616;BME280;11985;49.404;7.734;2023-02-15T04:47:34;98477.31;;;-2.34;100.00
23616;BME280;11985;49.404;7.734;2023-02-15T04:52:37;98464.41;;;-2.20;100.00
23616;BME280;11985;49.404;7.734;2023-02-15T04:57:39;98468.81;;;-1.95;100.00
23616;BME280;11985;49.404;7.734;2023-02-15T05:02:41;98480.06;;;-1.69;100.00
23616;BME280;11985;49.404;7.734;2023-02-15T05:07:43;98473.69;;;-1.64;100.00
23616;BME280;11985;49.404;7.734;2023-02-15T05:12:45;98473.28;;;-1.57;100.00
23616;BME280;11985;49.404;7.734;2023-02-15T05:17:47;98470.22;;;-1.50;100.00
23616;BME280;11985;49.404;7.734;2023-02-15T05:22:53;98479.94;;;-1.41;100.00
23616;BME280;11985;49.404;7.734;2023-02-15T05:27:54;98477.97;;;-1.37;100.00
23616;BME280;11985;49.404;7.734;2023-02-15T05:33:13;98469.28;;;-1.36;100.00
23616;BME280;11985;49.404;7.734;2023-02-15T05:38:16;98470.47;;;-1.27;100.00
23616;BME280;11985;49.404;7.734;2023-02-15T05:43:18;98465.88;;;-1.24;100.00
23616;BME280;11985;49.404;7.734;2023-02-15T05:48:21;98464.84;;;-1.34;100.00
23616;BME280;11985;49.404;7.734;2023-02-15T05:53:25;98482.41;;;-1.39;100.00
23616;BME280;11985;49.404;7.734;2023-02-15T05:58:27;98490.88;;;-1.50;100.00
23616;BME280;11985;49.404;7.734;2023-02-15T06:03:29;98496.97;;;-1.78;100.00
23616;BME280;11985;49.404;7.734;2023-02-15T06:08:32;98484.16;;;-1.79;100.00
23616;BME280;11985;49.404;7.734;2023-02-15T06:13:34;98495.16;;;-1.63;100.00
23616;BME280;11985;49.404;7.734;2023-02-15T06:18:36;98503.63;;;-1.61;100.00
23616;BME280;11985;49.404;7.734;2023-02-15T06:23:39;98493.09;;;-1.71;100.00
23616;BME280;11985;49.404;7.734;2023-02-15T06:28:40;98505.06;;;-1.70;100.00
23616;BME280;11985;49.404;7.734;2023-02-15T06:33:42;98502.63;;;-1.58;100.00
23616;BME280;11985;49.404;7.734;2023-02-15T06:38:45;98497.88;;;-1.52;100.00
23616;BME280;11985;49.404;7.734;2023-02-15T06:43:46;98498.81;;;-1.53;100.00
23616;BME280;11985;49.404;7.734;2023-02-15T06:48:48;98510.44;;;-1.73;100.00
23616;BME280;11985;49.404;7.734;2023-02-15T06:53:50;98515.66;;;-1.87;100.00
23616;BME280;11985;49.404;7.734;2023-02-15T06:58:52;98516.97;;;-1.94;100.00
23616;BME280;11985;49.404;7.734;2023-02-15T07:03:54;98523.78;;;-1.93;100.00
23616;BME280;11985;49.404;7.734;2023-02-15T07:08:56;98512.72;;;-1.95;100.00
23616;BME280;11985;49.404;7.734;2023-02-15T07:13:58;98514.03;;;-2.02;100.00
23616;BME280;11985;49.404;7.734;2023-02-15T07:18:59;98514.03;;;-2.02;100.00
23616;BME280;11985;49.404;7.734;2023-02-15T07:24:03;98516.06;;;-2.07;100.00
23616;BME280;11985;49.404;7.734;2023-02-15T07:29:04;98505.41;;;-2.16;100.00
23616;BME280;11985;49.404;7.734;2023-02-15T07:34:06;98504.53;;;-2.43;100.00
23616;BME280;11985;49.404;7.734;2023-02-15T07:39:09;98499.22;;;-2.54;100.00
23616;BME280;11985;49.404;7.734;2023-02-15T07:44:11;98498.25;;;-2.39;100.00
23616;BME280;11985;49.404;7.734;2023-02-15T07:49:13;98501.03;;;-2.42;100.00
23616;BME280;11985;49.404;7.734;2023-02-15T07:54:16;98498.63;;;-2.45;100.00
23616;BME280;11985;49.404;7.734;2023-02-15T07:59:18;98491.44;;;-2.40;100.00
23616;BME280;11985;49.404;7.734;2023-02-15T08:04:19;98492.03;;;-2.22;100.00
23616;BME280;11985;49.404;7.734;2023-02-15T08:09:22;98472.34;;;-1.96;100.00
23616;BME280;11985;49.404;7.734;2023-02-15T08:14:24;98472.91;;;-1.78;100.00
23616;BME280;11985;49.404;7.734;2023-02-15T08:19:27;98474.88;;;-1.82;100.00
23616;BME280;11985;49.404;7.734;2023-02-15T08:24:32;98470.03;;;-1.74;100.00
23616;BME280;11985;49.404;7.734;2023-02-15T08:29:34;98465.94;;;-1.64;100.00
23616;BME280;11985;49.404;7.734;2023-02-15T08:34:38;98473.09;;;-1.54;100.00
23616;BME280;11985;49.404;7.734;2023-02-15T08:39:41;98459.88;;;-1.37;100.00
23616;BME280;11985;49.404;7.734;2023-02-15T08:44:44;98459.38;;;-1.17;100.00
23616;BME280;11985;49.404;7.734;2023-02-15T08:49:45;98453.91;;;-0.87;100.00
23616;BME280;11985;49.404;7.734;2023-02-15T08:54:48;98459.06;;;-0.74;100.00
23616;BME280;11985;49.404;7.734;2023-02-15T08:59:49;98451.69;;;-0.55;100.00
23616;BME280;11985;49.404;7.734;2023-02-15T09:04:51;98451.69;;;-0.67;100.00
23616;BME280;11985;49.404;7.734;2023-02-15T09:09:54;98450.34;;;-0.60;100.00
23616;BME280;11985;49.404;7.734;2023-02-15T09:14:55;98459.88;;;-0.73;100.00
23616;BME280;11985;49.404;7.734;2023-02-15T09:19:57;98455.09;;;-0.54;100.00
23616;BME280;11985;49.404;7.734;2023-02-15T09:25:00;98464.31;;;-0.50;100.00
23616;BME280;11985;49.404;7.734;2023-02-15T09:30:01;98460.31;;;-0.30;100.00
23616;BME280;11985;49.404;7.734;2023-02-15T09:35:04;98464.19;;;0.12;100.00
23616;BME280;11985;49.404;7.734;2023-02-15T09:40:07;98460.84;;;0.23;100.00
23616;BME280;11985;49.404;7.734;2023-02-15T09:45:26;98458.03;;;0.37;100.00
23616;BME280;11985;49.404;7.734;2023-02-15T09:50:37;98457.59;;;0.78;100.00
23616;BME280;11985;49.404;7.734;2023-02-15T09:55:51;98462.66;;;0.91;100.00
23616;BME280;11985;49.404;7.734;2023-02-15T10:00:58;98464.31;;;0.92;100.00
23616;BME280;11985;49.404;7.734;2023-02-15T10:06:12;98466.25;;;1.35;100.00
23616;BME280;11985;49.404;7.734;2023-02-15T10:11:23;98465.75;;;1.52;100.00
23616;BME280;11985;49.404;7.734;2023-02-15T10:16:42;98463.16;;;1.64;100.00
23616;BME280;11985;49.404;7.734;2023-02-15T10:21:56;98456.31;;;1.51;100.00
23616;BME280;11985;49.404;7.734;2023-02-15T10:27:06;98454.44;;;1.53;100.00
23616;BME280;11985;49.404;7.734;2023-02-15T10:32:19;98451.47;;;1.69;100.00
23616;BME280;11985;49.404;7.734;2023-02-15T10:37:39;98445.94;;;1.63;100.00
23616;BME280;11985;49.404;7.734;2023-02-15T10:42:56;98441.19;;;1.79;100.00
23616;BME280;11985;49.404;7.734;2023-02-15T10:48:16;98439.97;;;2.47;100.00
23616;BME280;11985;49.404;7.734;2023-02-15T10:53:38;98429.31;;;2.92;100.00
23616;BME280;11985;49.404;7.734;2023-02-15T10:58:55;98434.28;;;2.95;100.00
23616;BME280;11985;49.404;7.734;2023-02-15T11:04:09;98427.75;;;3.10;100.00
23616;BME280;11985;49.404;7.734;2023-02-15T11:09:19;98417.22;;;3.52;100.00
23616;BME280;11985;49.404;7.734;2023-02-15T11:14:30;98413.06;;;3.90;100.00
23616;BME280;11985;49.404;7.734;2023-02-15T11:19:37;98408.97;;;4.07;100.00
23616;BME280;11985;49.404;7.734;2023-02-15T11:24:43;98406.63;;;4.13;100.00
23616;BME280;11985;49.404;7.734;2023-02-15T11:29:52;98400.59;;;4.22;100.00
23616;BME280;11985;49.404;7.734;2023-02-15T11:35:00;98391.47;;;4.65;100.00
23616;BME280;11985;49.404;7.734;2023-02-15T11:40:16;98382.53;;;4.78;100.00
23616;BME280;11985;49.404;7.734;2023-02-15T11:45:25;98369.88;;;5.10;100.00
23616;BME280;11985;49.404;7.734;2023-02-15T11:50:29;98367.00;;;5.41;100.00
23616;BME280;11985;49.404;7.734;2023-02-15T11:55:32;98363.56;;;5.68;100.00
23616;BME280;11985;49.404;7.734;2023-02-15T12:00:39;98366.97;;;5.96;100.00
23616;BME280;11985;49.404;7.734;2023-02-15T12:05:45;98361.94;;;6.20;100.00
23616;BME280;11985;49.404;7.734;2023-02-15T12:10:57;98355.75;;;6.47;100.00
23616;BME280;11985;49.404;7.734;2023-02-15T12:16:07;98357.09;;;6.51;99.93
23616;BME280;11985;49.404;7.734;2023-02-15T12:21:15;98351.28;;;6.66;99.15
23616;BME280;11985;49.404;7.734;2023-02-15T12:26:26;98337.56;;;6.98;96.82
23616;BME280;11985;49.404;7.734;2023-02-15T12:31:32;98338.78;;;7.11;95.13
23616;BME280;11985;49.404;7.734;2023-02-15T12:36:42;98324.94;;;7.35;93.85
23616;BME280;11985;49.404;7.734;2023-02-15T12:41:57;98320.13;;;7.73;92.12
23616;BME280;11985;49.404;7.734;2023-02-15T12:47:03;98319.84;;;8.17;89.33
23616;BME280;11985;49.404;7.734;2023-02-15T12:52:22;98304.69;;;8.60;86.34
23616;BME280;11985;49.404;7.734;2023-02-15T12:57:26;98296.91;;;8.91;84.71
23616;BME280;11985;49.404;7.734;2023-02-15T13:02:35;98286.06;;;9.33;82.18
23616;BME280;11985;49.404;7.734;2023-02-15T13:07:38;98288.44;;;9.74;77.50
23616;BME280;11985;49.404;7.734;2023-02-15T13:12:46;98280.22;;;9.92;75.02
23616;BME280;11985;49.404;7.734;2023-02-15T13:17:49;98275.31;;;10.12;72.14
23616;BME280;11985;49.404;7.734;2023-02-15T13:22:53;98272.19;;;10.31;70.25
23616;BME280;11985;49.404;7.734;2023-02-15T13:28:01;98272.03;;;10.47;66.60
23616;BME280;11985;49.404;7.734;2023-02-15T13:33:08;98264.13;;;10.47;65.65
23616;BME280;11985;49.404;7.734;2023-02-15T13:38:31;98266.97;;;10.75;64.05
23616;BME280;11985;49.404;7.734;2023-02-15T13:43:43;98267.31;;;10.87;62.24
23616;BME280;11985;49.404;7.734;2023-02-15T13:48:58;98265.50;;;11.02;61.51
23616;BME280;11985;49.404;7.734;2023-02-15T13:54:27;98252.13;;;11.04;61.71
23616;BME280;11985;49.404;7.734;2023-02-15T13:59:40;98254.72;;;11.19;60.03
23616;BME280;11985;49.404;7.734;2023-02-15T14:05:05;98245.47;;;11.23;59.30
23616;BME280;11985;49.404;7.734;2023-02-15T14:10:26;98263.84;;;11.16;58.95
23616;BME280;11985;49.404;7.734;2023-02-15T14:15:38;98254.53;;;11.20;59.65
23616;BME280;11985;49.404;7.734;2023-02-15T14:20:54;98256.69;;;10.95;62.19
23616;BME280;11985;49.404;7.734;2023-02-15T14:26:01;98253.25;;;10.80;63.57
23616;BME280;11985;49.404;7.734;2023-02-15T14:31:03;98255.53;;;10.68;64.01
23616;BME280;11985;49.404;7.734;2023-02-15T14:36:12;98256.34;;;10.69;65.10
23616;BME280;11985;49.404;7.734;2023-02-15T14:41:17;98250.06;;;10.70;64.74
23616;BME280;11985;49.404;7.734;2023-02-15T14:46:27;98253.59;;;10.77;65.65
23616;BME280;11985;49.404;7.734;2023-02-15T14:51:55;98240.59;;;11.05;61.74
23616;BME280;11985;49.404;7.734;2023-02-15T14:57:24;98245.47;;;11.23;59.28
23616;BME280;11985;49.404;7.734;2023-02-15T15:02:28;98241.41;;;11.05;58.30
23616;BME280;11985;49.404;7.734;2023-02-15T15:07:41;98244.78;;;10.99;57.74
23616;BME280;11985;49.404;7.734;2023-02-15T15:12:45;98238.78;;;11.05;58.24
23616;BME280;11985;49.404;7.734;2023-02-15T15:17:56;98242.16;;;10.99;57.82
23616;BME280;11985;49.404;7.734;2023-02-15T15:28:57;98253.84;;;11.12;58.26
23616;BME280;11985;49.404;7.734;2023-02-15T15:34:30;98241.34;;;11.20;58.83
23616;BME280;11985;49.404;7.734;2023-02-15T15:40:15;98247.28;;;11.22;58.96
23616;BME280;11985;49.404;7.734;2023-02-15T15:50:52;98252.22;;;10.81;59.98
23616;BME280;11985;49.404;7.734;2023-02-15T15:55:57;98249.88;;;10.56;60.51
23616;BME280;11985;49.404;7.734;2023-02-15T16:01:06;98251.22;;;10.38;61.41
23616;BME280;11985;49.404;7.734;2023-02-15T16:06:12;98252.19;;;10.22;62.24
23616;BME280;11985;49.404;7.734;2023-02-15T16:11:19;98250.13;;;9.94;63.30
23616;BME280;11985;49.404;7.734;2023-02-15T16:16:26;98249.97;;;9.73;64.44
23616;BME280;11985;49.404;7.734;2023-02-15T16:21:31;98256.84;;;9.51;65.40
23616;BME280;11985;49.404;7.734;2023-02-15T16:26:48;98257.66;;;9.29;67.00
23616;BME280;11985;49.404;7.734;2023-02-15T16:32:01;98254.13;;;9.13;67.79
23616;BME280;11985;49.404;7.734;2023-02-15T16:37:13;98247.22;;;8.73;68.54
23616;BME280;11985;49.404;7.734;2023-02-15T16:42:15;98252.22;;;8.27;70.24
23616;BME280;11985;49.404;7.734;2023-02-15T16:47:22;98250.00;;;7.83;72.45
23616;BME280;11985;49.404;7.734;2023-02-15T16:52:26;98258.78;;;7.41;74.37
23616;BME280;11985;49.404;7.734;2023-02-15T16:57:33;98259.34;;;7.03;75.98
23616;BME280;11985;49.404;7.734;2023-02-15T17:02:37;98264.09;;;6.65;77.87
23616;BME280;11985;49.404;7.734;2023-02-15T17:07:40;98256.41;;;6.38;79.91
23616;BME280;11985;49.404;7.734;2023-02-15T17:12:46;98263.91;;;6.06;81.49
23616;BME280;11985;49.404;7.734;2023-02-15T17:17:50;98256.16;;;5.79;83.53
23616;BME280;11985;49.404;7.734;2023-02-15T17:22:52;98262.66;;;5.57;85.30
23616;BME280;11985;49.404;7.734;2023-02-15T17:27:55;98259.44;;;5.45;87.38
23616;BME280;11985;49.404;7.734;2023-02-15T17:32:59;98264.91;;;5.52;88.23
23616;BME280;11985;49.404;7.734;2023-02-15T17:38:06;98258.31;;;5.48;88.88
23616;BME280;11985;49.404;7.734;2023-02-15T17:43:16;98266.69;;;5.34;89.62
23616;BME280;11985;49.404;7.734;2023-02-15T17:48:21;98267.63;;;5.15;90.43
23616;BME280;11985;49.404;7.734;2023-02-15T17:53:23;98269.72;;;4.84;91.08
23616;BME280;11985;49.404;7.734;2023-02-15T17:58:26;98278.88;;;4.60;92.44
23616;BME280;11985;49.404;7.734;2023-02-15T18:03:39;98267.13;;;4.37;94.13
23616;BME280;11985;49.404;7.734;2023-02-15T18:08:59;98274.31;;;4.15;95.07
23616;BME280;11985;49.404;7.734;2023-02-15T18:14:17;98271.19;;;4.02;96.86
23616;BME280;11985;49.404;7.734;2023-02-15T18:19:22;98274.63;;;3.93;98.19
23616;BME280;11985;49.404;7.734;2023-02-15T18:24:25;98270.94;;;3.86;99.39
23616;BME280;11985;49.404;7.734;2023-02-15T18:29:27;98271.63;;;3.88;100.00
23616;BME280;11985;49.404;7.734;2023-02-15T18:34:31;98266.13;;;4.01;100.00
23616;BME280;11985;49.404;7.734;2023-02-15T18:39:37;98275.75;;;4.00;100.00
23616;BME280;11985;49.404;7.734;2023-02-15T18:44:39;98259.84;;;3.84;99.49
23616;BME280;11985;49.404;7.734;2023-02-15T18:49:42;98263.53;;;3.71;100.00
23616;BME280;11985;49.404;7.734;2023-02-15T18:54:44;98265.34;;;3.52;100.00
23616;BME280;11985;49.404;7.734;2023-02-15T18:59:46;98257.38;;;3.34;100.00
23616;BME280;11985;49.404;7.734;2023-02-15T19:04:49;98259.94;;;3.14;100.00
23616;BME280;11985;49.404;7.734;2023-02-15T19:09:54;98257.03;;;2.98;100.00
23616;BME280;11985;49.404;7.734;2023-02-15T19:14:56;98250.97;;;2.88;100.00
23616;BME280;11985;49.404;7.734;2023-02-15T19:19:59;98256.13;;;2.69;100.00
23616;BME280;11985;49.404;7.734;2023-02-15T19:25:02;98260.59;;;2.57;100.00
23616;BME280;11985;49.404;7.734;2023-02-15T19:30:13;98258.56;;;2.60;100.00
23616;BME280;11985;49.404;7.734;2023-02-15T19:35:19;98256.69;;;2.72;100.00
23616;BME280;11985;49.404;7.734;2023-02-15T19:40:23;98256.28;;;2.77;100.00
23616;BME280;11985;49.404;7.734;2023-02-15T19:45:28;98253.97;;;2.74;100.00
23616;BME280;11985;49.404;7.734;2023-02-15T19:50:32;98251.03;;;2.57;100.00
23616;BME280;11985;49.404;7.734;2023-02-15T19:55:34;98252.31;;;2.42;100.00
23616;BME280;11985;49.404;7.734;2023-02-15T20:00:37;98252.41;;;2.31;100.00
23616;BME280;11985;49.404;7.734;2023-02-15T20:05:40;98254.66;;;2.15;100.00
23616;BME280;11985;49.404;7.734;2023-02-15T20:10:42;98264.28;;;2.03;100.00
23616;BME280;11985;49.404;7.734;2023-02-15T20:15:45;98260.31;;;1.78;100.00
23616;BME280;11985;49.404;7.734;2023-02-15T20:20:49;98261.50;;;1.74;100.00
23616;BME280;11985;49.404;7.734;2023-02-15T20:25:52;98260.56;;;1.75;100.00
23616;BME280;11985;49.404;7.734;2023-02-15T20:30:53;98270.66;;;1.89;100.00
23616;BME280;11985;49.404;7.734;2023-02-15T20:35:57;98266.31;;;1.99;100.00
23616;BME280;11985;49.404;7.734;2023-02-15T20:40:59;98271.94;;;2.04;100.00
23616;BME280;11985;49.404;7.734;2023-02-15T20:46:18;98270.81;;;1.97;100.00
23616;BME280;11985;49.404;7.734;2023-02-15T20:51:21;98268.28;;;1.86;100.00
23616;BME280;11985;49.404;7.734;2023-02-15T20:56:24;98265.66;;;1.65;100.00
23616;BME280;11985;49.404;7.734;2023-02-15T21:01:25;98267.25;;;1.56;100.00
23616;BME280;11985;49.404;7.734;2023-02-15T21:06:28;98272.81;;;1.52;100.00
23616;BME280;11985;49.404;7.734;2023-02-15T21:11:30;98270.13;;;1.42;100.00
23616;BME280;11985;49.404;7.734;2023-02-15T21:16:31;98272.25;;;1.37;100.00
23616;BME280;11985;49.404;7.734;2023-02-15T21:21:34;98268.38;;;1.31;100.00
23616;BME280;11985;49.404;7.734;2023-02-15T21:26:36;98276.06;;;1.22;100.00
23616;BME280;11985;49.404;7.734;2023-02-15T21:31:41;98271.34;;;1.27;100.00
23616;BME280;11985;49.404;7.734;2023-02-15T21:36:45;98281.97;;;1.35;100.00
23616;BME280;11985;49.404;7.734;2023-02-15T21:41:50;98275.69;;;1.38;100.00
23616;BME280;11985;49.404;7.734;2023-02-15T21:47:17;98278.06;;;1.29;100.00
23616;BME280;11985;49.404;7.734;2023-02-15T21:52:38;98271.75;;;1.22;100.00
23616;BME280;11985;49.404;7.734;2023-02-15T21:57:39;98281.06;;;1.14;100.00
23616;BME280;11985;49.404;7.734;2023-02-15T22:02:42;98275.91;;;1.02;100.00
23616;BME280;11985;49.404;7.734;2023-02-15T22:07:46;98268.25;;;0.90;100.00
23616;BME280;11985;49.404;7.734;2023-02-15T22:12:47;98265.44;;;0.70;100.00
23616;BME280;11985;49.404;7.734;2023-02-15T22:17:50;98262.97;;;0.58;100.00
23616;BME280;11985;49.404;7.734;2023-02-15T22:22:54;98262.50;;;0.41;100.00
23616;BME280;11985;49.404;7.734;2023-02-15T22:27:55;98263.94;;;0.23;100.00
23616;BME280;11985;49.404;7.734;2023-02-15T22:32:58;98265.44;;;0.14;100.00
23616;BME280;11985;49.404;7.734;2023-02-15T22:38:01;98274.47;;;-0.03;100.00
23616;BME280;11985;49.404;7.734;2023-02-15T22:43:03;98261.50;;;-0.14;100.00
23616;BME280;11985;49.404;7.734;2023-02-15T22:48:05;98274.19;;;-0.22;100.00
23616;BME280;11985;49.404;7.734;2023-02-15T22:53:10;98269.22;;;-0.25;100.00
23616;BME280;11985;49.404;7.734;2023-02-15T22:58:15;98259.13;;;-0.17;100.00
23616;BME280;11985;49.404;7.734;2023-02-15T23:03:19;98263.59;;;-0.19;100.00
23616;BME280;11985;49.404;7.734;2023-02-15T23:08:22;98257.94;;;-0.24;100.00
23616;BME280;11985;49.404;7.734;2023-02-15T23:13:26;98251.91;;;-0.36;100.00
23616;BME280;11985;49.404;7.734;2023-02-15T23:18:31;98249.19;;;-0.34;100.00
23616;BME280;11985;49.404;7.734;2023-02-15T23:23:36;98254.81;;;-0.40;100.00
23616;BME280;11985;49.404;7.734;2023-02-15T23:28:38;98253.16;;;-0.41;100.00
23616;BME280;11985;49.404;7.734;2023-02-15T23:33:40;98266.56;;;-0.47;100.00
23616;BME280;11985;49.404;7.734;2023-02-15T23:38:43;98263.97;;;-0.47;100.00
23616;BME280;11985;49.404;7.734;2023-02-15T23:43:47;98261.28;;;-0.46;100.00
23616;BME280;11985;49.404;7.734;2023-02-15T23:48:50;98267.78;;;-0.29;100.00
23616;BME280;11985;49.404;7.734;2023-02-15T23:53:54;98256.53;;;-0.17;100.00
23616;BME280;11985;49.404;7.734;2023-02-15T23:58:56;98263.88;;;-0.11;100.00
